sensor_id;sensor_type;location;lat;lon;timestamp;P1;durP1;ratioP1;P2;durP2;ratioP2
49252;SDS011;35103;47.952;-1.502;2022-07-05T00:02:25;885.15;;;801.50;;
49252;SDS011;35103;47.952;-1.502;2022-07-05T00:04:53;902.28;;;815.58;;
49252;SDS011;35103;47.952;-1.502;2022-07-05T00:07:19;825.15;;;750.63;;
49252;SDS011;35103;47.952;-1.502;2022-07-05T00:12:11;899.30;;;810.22;;
49252;SDS011;35103;47.952;-1.502;2022-07-05T00:14:37;887.42;;;806.88;;
49252;SDS011;35103;47.952;-1.502;2022-07-05T00:17:03;898.08;;;813.45;;
49252;SDS011;35103;47.952;-1.502;2022-07-05T00:19:28;919.25;;;833.22;;
49252;SDS011;35103;47.952;-1.502;2022-07-05T00:21:54;911.47;;;827.88;;
49252;SDS011;35103;47.952;-1.502;2022-07-05T00:24:19;676.95;;;621.35;;
49252;SDS011;35103;47.952;-1.502;2022-07-05T00:26:45;765.88;;;698.67;;
49252;SDS011;35103;47.952;-1.502;2022-07-05T00:29:14;875.28;;;793.33;;
49252;SDS011;35103;47.952;-1.502;2022-07-05T00:31:39;783.38;;;714.10;;
49252;SDS011;35103;47.952;-1.502;2022-07-05T00:34:05;769.40;;;701.03;;
49252;SDS011;35103;47.952;-1.502;2022-07-05T00:36:31;879.95;;;795.80;;
49252;SDS011;35103;47.952;-1.502;2022-07-05T00:38:56;840.15;;;766.13;;
49252;SDS011;35103;47.952;-1.502;2022-07-05T00:41:22;823.17;;;750.75;;
49252;SDS011;35103;47.952;-1.502;2022-07-05T00:43:51;710.20;;;649.95;;
49252;SDS011;35103;47.952;-1.502;2022-07-05T00:46:22;835.25;;;759.75;;
49252;SDS011;35103;47.952;-1.502;2022-07-05T00:48:47;853.22;;;776.50;;
49252;SDS011;35103;47.952;-1.502;2022-07-05T00:51:13;756.13;;;691.53;;
49252;SDS011;35103;47.952;-1.502;2022-07-05T00:53:42;865.28;;;787.15;;
49252;SDS011;35103;47.952;-1.502;2022-07-05T00:56:08;757.88;;;691.50;;
49252;SDS011;35103;47.952;-1.502;2022-07-05T00:58:34;731.55;;;669.38;;
49252;SDS011;35103;47.952;-1.502;2022-07-05T01:01:01;894.92;;;810.55;;
49252;SDS011;35103;47.952;-1.502;2022-07-05T01:03:29;827.05;;;752.95;;
49252;SDS011;35103;47.952;-1.502;2022-07-05T01:05:55;791.13;;;719.92;;
49252;SDS011;35103;47.952;-1.502;2022-07-05T01:08:22;787.70;;;718.45;;
49252;SDS011;35103;47.952;-1.502;2022-07-05T01:10:49;915.55;;;829.80;;
49252;SDS011;35103;47.952;-1.502;2022-07-05T01:13:15;759.38;;;694.25;;
49252;SDS011;35103;47.952;-1.502;2022-07-05T01:15:41;666.92;;;609.75;;
49252;SDS011;35103;47.952;-1.502;2022-07-05T01:18:07;816.60;;;747.00;;
49252;SDS011;35103;47.952;-1.502;2022-07-05T01:20:34;753.50;;;686.95;;
49252;SDS011;35103;47.952;-1.502;2022-07-05T01:23:01;723.25;;;658.53;;
49252;SDS011;35103;47.952;-1.502;2022-07-05T01:25:27;829.95;;;756.55;;
49252;SDS011;35103;47.952;-1.502;2022-07-05T01:27:54;743.05;;;675.35;;
49252;SDS011;35103;47.952;-1.502;2022-07-05T01:30:21;853.53;;;777.60;;
49252;SDS011;35103;47.952;-1.502;2022-07-05T01:32:47;690.28;;;630.85;;
49252;SDS011;35103;47.952;-1.502;2022-07-05T01:35:13;694.72;;;636.70;;
49252;SDS011;35103;47.952;-1.502;2022-07-05T01:37:43;809.00;;;738.53;;
49252;SDS011;35103;47.952;-1.502;2022-07-05T01:40:08;716.28;;;652.78;;
49252;SDS011;35103;47.952;-1.502;2022-07-05T01:42:34;780.60;;;713.75;;
49252;SDS011;35103;47.952;-1.502;2022-07-05T01:45:00;869.97;;;792.70;;
49252;SDS011;35103;47.952;-1.502;2022-07-05T01:47:25;754.22;;;690.67;;
49252;SDS011;35103;47.952;-1.502;2022-07-05T01:49:52;700.97;;;640.95;;
49252;SDS011;35103;47.952;-1.502;2022-07-05T01:52:20;749.95;;;682.25;;
49252;SDS011;35103;47.952;-1.502;2022-07-05T01:54:47;782.90;;;714.85;;
49252;SDS011;35103;47.952;-1.502;2022-07-05T01:57:13;666.05;;;610.13;;
49252;SDS011;35103;47.952;-1.502;2022-07-05T01:59:38;678.00;;;619.97;;
49252;SDS011;35103;47.952;-1.502;2022-07-05T02:02:05;625.70;;;571.75;;
49252;SDS011;35103;47.952;-1.502;2022-07-05T02:04:32;771.35;;;704.97;;
49252;SDS011;35103;47.952;-1.502;2022-07-05T02:06:59;918.53;;;834.30;;
49252;SDS011;35103;47.952;-1.502;2022-07-05T02:09:28;709.70;;;647.45;;
49252;SDS011;35103;47.952;-1.502;2022-07-05T02:11:53;726.47;;;664.25;;
49252;SDS011;35103;47.952;-1.502;2022-07-05T02:14:19;885.65;;;807.50;;
49252;SDS011;35103;47.952;-1.502;2022-07-05T02:16:44;684.75;;;625.83;;
49252;SDS011;35103;47.952;-1.502;2022-07-05T02:19:10;621.53;;;570.53;;
49252;SDS011;35103;47.952;-1.502;2022-07-05T02:21:35;650.90;;;597.72;;
49252;SDS011;35103;47.952;-1.502;2022-07-05T02:24:01;623.92;;;572.60;;
49252;SDS011;35103;47.952;-1.502;2022-07-05T02:26:27;866.45;;;789.08;;
49252;SDS011;35103;47.952;-1.502;2022-07-05T02:28:52;778.30;;;709.47;;
49252;SDS011;35103;47.952;-1.502;2022-07-05T02:31:18;648.50;;;592.60;;
49252;SDS011;35103;47.952;-1.502;2022-07-05T02:33:43;585.80;;;537.13;;
49252;SDS011;35103;47.952;-1.502;2022-07-05T02:36:09;653.90;;;599.78;;
49252;SDS011;35103;47.952;-1.502;2022-07-05T02:38:37;712.13;;;650.85;;
49252;SDS011;35103;47.952;-1.502;2022-07-05T02:41:09;665.40;;;611.63;;
49252;SDS011;35103;47.952;-1.502;2022-07-05T02:43:35;698.72;;;638.35;;
49252;SDS011;35103;47.952;-1.502;2022-07-05T02:46:02;625.65;;;573.58;;
49252;SDS011;35103;47.952;-1.502;2022-07-05T02:48:29;741.45;;;678.80;;
49252;SDS011;35103;47.952;-1.502;2022-07-05T02:50:55;849.30;;;771.97;;
49252;SDS011;35103;47.952;-1.502;2022-07-05T02:53:20;712.45;;;651.63;;
49252;SDS011;35103;47.952;-1.502;2022-07-05T02:55:46;576.83;;;531.20;;
49252;SDS011;35103;47.952;-1.502;2022-07-05T02:58:12;428.60;;;397.17;;
49252;SDS011;35103;47.952;-1.502;2022-07-05T03:00:37;751.13;;;685.95;;
49252;SDS011;35103;47.952;-1.502;2022-07-05T03:03:03;687.75;;;630.13;;
49252;SDS011;35103;47.952;-1.502;2022-07-05T03:05:28;660.95;;;605.47;;
49252;SDS011;35103;47.952;-1.502;2022-07-05T03:07:54;651.17;;;598.67;;
49252;SDS011;35103;47.952;-1.502;2022-07-05T03:10:20;646.75;;;593.10;;
49252;SDS011;35103;47.952;-1.502;2022-07-05T03:12:45;692.38;;;634.88;;
49252;SDS011;35103;47.952;-1.502;2022-07-05T03:15:11;537.40;;;492.60;;
49252;SDS011;35103;47.952;-1.502;2022-07-05T03:17:36;679.58;;;622.85;;
49252;SDS011;35103;47.952;-1.502;2022-07-05T03:20:02;677.67;;;621.20;;
49252;SDS011;35103;47.952;-1.502;2022-07-05T03:22:28;478.45;;;441.08;;
49252;SDS011;35103;47.952;-1.502;2022-07-05T03:24:54;723.55;;;662.30;;
49252;SDS011;35103;47.952;-1.502;2022-07-05T03:27:19;507.45;;;467.80;;
49252;SDS011;35103;47.952;-1.502;2022-07-05T03:29:45;534.28;;;491.65;;
49252;SDS011;35103;47.952;-1.502;2022-07-05T03:32:10;497.08;;;458.60;;
49252;SDS011;35103;47.952;-1.502;2022-07-05T03:34:36;503.60;;;461.90;;
49252;SDS011;35103;47.952;-1.502;2022-07-05T03:37:01;645.08;;;589.90;;
49252;SDS011;35103;47.952;-1.502;2022-07-05T03:39:27;512.58;;;473.02;;
49252;SDS011;35103;47.952;-1.502;2022-07-05T03:41:52;563.63;;;518.60;;
49252;SDS011;35103;47.952;-1.502;2022-07-05T03:44:18;628.45;;;573.95;;
49252;SDS011;35103;47.952;-1.502;2022-07-05T03:46:43;465.75;;;429.50;;
49252;SDS011;35103;47.952;-1.502;2022-07-05T03:49:09;462.05;;;427.13;;
49252;SDS011;35103;47.952;-1.502;2022-07-05T03:51:35;558.50;;;513.25;;
49252;SDS011;35103;47.952;-1.502;2022-07-05T03:54:01;447.65;;;412.13;;
49252;SDS011;35103;47.952;-1.502;2022-07-05T03:56:27;663.60;;;610.35;;
49252;SDS011;35103;47.952;-1.502;2022-07-05T03:58:52;564.28;;;518.38;;
49252;SDS011;35103;47.952;-1.502;2022-07-05T04:01:19;617.22;;;569.70;;
49252;SDS011;35103;47.952;-1.502;2022-07-05T04:03:44;514.25;;;472.45;;
49252;SDS011;35103;47.952;-1.502;2022-07-05T04:06:10;573.10;;;525.75;;
49252;SDS011;35103;47.952;-1.502;2022-07-05T04:08:36;446.50;;;412.30;;
49252;SDS011;35103;47.952;-1.502;2022-07-05T04:11:02;563.10;;;515.92;;
49252;SDS011;35103;47.952;-1.502;2022-07-05T04:13:28;555.85;;;512.42;;
49252;SDS011;35103;47.952;-1.502;2022-07-05T04:15:54;443.63;;;410.08;;
49252;SDS011;35103;47.952;-1.502;2022-07-05T04:18:19;591.47;;;542.60;;
49252;SDS011;35103;47.952;-1.502;2022-07-05T04:20:45;527.72;;;487.17;;
49252;SDS011;35103;47.952;-1.502;2022-07-05T04:23:10;424.15;;;392.02;;
49252;SDS011;35103;47.952;-1.502;2022-07-05T04:25:36;426.50;;;393.90;;
49252;SDS011;35103;47.952;-1.502;2022-07-05T04:28:01;450.48;;;415.92;;
49252;SDS011;35103;47.952;-1.502;2022-07-05T04:30:27;447.75;;;414.42;;
49252;SDS011;35103;47.952;-1.502;2022-07-05T04:32:52;390.88;;;363.15;;
49252;SDS011;35103;47.952;-1.502;2022-07-05T04:35:18;442.20;;;407.98;;
49252;SDS011;35103;47.952;-1.502;2022-07-05T04:37:44;759.47;;;692.08;;
49252;SDS011;35103;47.952;-1.502;2022-07-05T04:40:10;646.67;;;594.53;;
49252;SDS011;35103;47.952;-1.502;2022-07-05T04:42:37;449.13;;;414.45;;
49252;SDS011;35103;47.952;-1.502;2022-07-05T04:45:04;595.08;;;547.58;;
49252;SDS011;35103;47.952;-1.502;2022-07-05T04:47:30;467.58;;;432.13;;
49252;SDS011;35103;47.952;-1.502;2022-07-05T04:49:57;504.02;;;463.73;;
49252;SDS011;35103;47.952;-1.502;2022-07-05T04:52:23;443.85;;;409.23;;
49252;SDS011;35103;47.952;-1.502;2022-07-05T04:54:49;584.30;;;537.30;;
49252;SDS011;35103;47.952;-1.502;2022-07-05T04:57:15;421.90;;;389.52;;
49252;SDS011;35103;47.952;-1.502;2022-07-05T04:59:41;556.40;;;511.35;;
49252;SDS011;35103;47.952;-1.502;2022-07-05T05:02:06;443.95;;;409.73;;
49252;SDS011;35103;47.952;-1.502;2022-07-05T05:04:32;554.97;;;509.23;;
49252;SDS011;35103;47.952;-1.502;2022-07-05T05:06:58;446.60;;;412.40;;
49252;SDS011;35103;47.952;-1.502;2022-07-05T05:09:23;481.70;;;445.02;;
49252;SDS011;35103;47.952;-1.502;2022-07-05T05:11:49;520.22;;;479.35;;
49252;SDS011;35103;47.952;-1.502;2022-07-05T05:14:15;542.22;;;499.70;;
49252;SDS011;35103;47.952;-1.502;2022-07-05T05:16:40;349.17;;;325.08;;
49252;SDS011;35103;47.952;-1.502;2022-07-05T05:19:06;496.70;;;458.48;;
49252;SDS011;35103;47.952;-1.502;2022-07-05T05:21:31;501.27;;;463.13;;
49252;SDS011;35103;47.952;-1.502;2022-07-05T05:23:57;570.65;;;526.60;;
49252;SDS011;35103;47.952;-1.502;2022-07-05T05:26:23;482.85;;;446.27;;
49252;SDS011;35103;47.952;-1.502;2022-07-05T05:28:48;768.58;;;702.13;;
49252;SDS011;35103;47.952;-1.502;2022-07-05T05:31:14;617.47;;;567.42;;
49252;SDS011;35103;47.952;-1.502;2022-07-05T05:33:40;423.17;;;391.42;;
49252;SDS011;35103;47.952;-1.502;2022-07-05T05:36:05;541.08;;;498.50;;
49252;SDS011;35103;47.952;-1.502;2022-07-05T05:38:31;593.17;;;545.78;;
49252;SDS011;35103;47.952;-1.502;2022-07-05T05:40:57;674.00;;;617.92;;
49252;SDS011;35103;47.952;-1.502;2022-07-05T05:43:23;537.58;;;495.17;;
49252;SDS011;35103;47.952;-1.502;2022-07-05T05:45:48;706.88;;;647.38;;
49252;SDS011;35103;47.952;-1.502;2022-07-05T05:48:14;592.70;;;546.33;;
49252;SDS011;35103;47.952;-1.502;2022-07-05T05:50:39;545.50;;;501.75;;
49252;SDS011;35103;47.952;-1.502;2022-07-05T05:53:05;529.35;;;488.48;;
49252;SDS011;35103;47.952;-1.502;2022-07-05T05:55:31;608.40;;;560.00;;
49252;SDS011;35103;47.952;-1.502;2022-07-05T05:58:09;639.42;;;587.67;;
49252;SDS011;35103;47.952;-1.502;2022-07-05T06:00:42;791.15;;;719.78;;
49252;SDS011;35103;47.952;-1.502;2022-07-05T06:03:08;768.25;;;703.33;;
49252;SDS011;35103;47.952;-1.502;2022-07-05T06:05:34;719.42;;;656.80;;
49252;SDS011;35103;47.952;-1.502;2022-07-05T06:08:00;859.83;;;780.78;;
49252;SDS011;35103;47.952;-1.502;2022-07-05T06:10:27;680.92;;;626.95;;
49252;SDS011;35103;47.952;-1.502;2022-07-05T06:12:54;501.25;;;463.15;;
49252;SDS011;35103;47.952;-1.502;2022-07-05T06:15:22;666.20;;;607.45;;
49252;SDS011;35103;47.952;-1.502;2022-07-05T06:17:48;673.80;;;614.58;;
49252;SDS011;35103;47.952;-1.502;2022-07-05T06:20:19;832.00;;;756.25;;
49252;SDS011;35103;47.952;-1.502;2022-07-05T06:22:46;510.90;;;471.55;;
49252;SDS011;35103;47.952;-1.502;2022-07-05T06:25:13;616.30;;;564.13;;
49252;SDS011;35103;47.952;-1.502;2022-07-05T06:27:42;643.80;;;592.05;;
49252;SDS011;35103;47.952;-1.502;2022-07-05T06:30:14;657.95;;;603.00;;
49252;SDS011;35103;47.952;-1.502;2022-07-05T06:32:41;681.72;;;625.13;;
49252;SDS011;35103;47.952;-1.502;2022-07-05T06:35:07;819.38;;;745.45;;
49252;SDS011;35103;47.952;-1.502;2022-07-05T06:37:50;708.47;;;645.78;;
49252;SDS011;35103;47.952;-1.502;2022-07-05T06:40:23;667.28;;;608.85;;
49252;SDS011;35103;47.952;-1.502;2022-07-05T06:42:57;785.20;;;712.58;;
49252;SDS011;35103;47.952;-1.502;2022-07-05T06:45:25;623.72;;;572.17;;
49252;SDS011;35103;47.952;-1.502;2022-07-05T06:47:57;686.20;;;625.50;;
49252;SDS011;35103;47.952;-1.502;2022-07-05T06:50:25;690.53;;;632.47;;
49252;SDS011;35103;47.952;-1.502;2022-07-05T06:52:55;756.22;;;692.47;;
49252;SDS011;35103;47.952;-1.502;2022-07-05T06:55:21;704.17;;;643.42;;
49252;SDS011;35103;47.952;-1.502;2022-07-05T06:57:47;699.97;;;639.10;;
49252;SDS011;35103;47.952;-1.502;2022-07-05T07:00:13;819.38;;;740.28;;
49252;SDS011;35103;47.952;-1.502;2022-07-05T07:02:39;712.38;;;650.08;;
49252;SDS011;35103;47.952;-1.502;2022-07-05T07:05:05;769.20;;;698.40;;
49252;SDS011;35103;47.952;-1.502;2022-07-05T07:07:31;840.30;;;760.00;;
49252;SDS011;35103;47.952;-1.502;2022-07-05T07:09:58;835.67;;;757.65;;
49252;SDS011;35103;47.952;-1.502;2022-07-05T07:12:24;843.13;;;764.28;;
49252;SDS011;35103;47.952;-1.502;2022-07-05T07:14:50;737.67;;;667.47;;
49252;SDS011;35103;47.952;-1.502;2022-07-05T07:17:16;810.90;;;735.65;;
49252;SDS011;35103;47.952;-1.502;2022-07-05T07:19:41;739.55;;;670.17;;
49252;SDS011;35103;47.952;-1.502;2022-07-05T07:22:07;788.25;;;715.95;;
49252;SDS011;35103;47.952;-1.502;2022-07-05T07:24:33;844.22;;;764.83;;
49252;SDS011;35103;47.952;-1.502;2022-07-05T07:26:58;890.30;;;802.92;;
49252;SDS011;35103;47.952;-1.502;2022-07-05T07:29:24;714.60;;;655.05;;
49252;SDS011;35103;47.952;-1.502;2022-07-05T07:31:50;762.10;;;694.40;;
49252;SDS011;35103;47.952;-1.502;2022-07-05T07:34:15;892.30;;;810.17;;
49252;SDS011;35103;47.952;-1.502;2022-07-05T07:36:41;703.38;;;640.88;;
49252;SDS011;35103;47.952;-1.502;2022-07-05T07:39:06;744.92;;;679.60;;
49252;SDS011;35103;47.952;-1.502;2022-07-05T07:41:32;985.85;;;875.08;;
49252;SDS011;35103;47.952;-1.502;2022-07-05T07:43:57;1031.65;;;889.63;;
49252;SDS011;35103;47.952;-1.502;2022-07-05T07:46:23;745.13;;;680.33;;
49252;SDS011;35103;47.952;-1.502;2022-07-05T07:48:48;799.00;;;726.05;;
49252;SDS011;35103;47.952;-1.502;2022-07-05T07:51:14;831.97;;;754.08;;
49252;SDS011;35103;47.952;-1.502;2022-07-05T07:53:42;772.97;;;704.17;;
49252;SDS011;35103;47.952;-1.502;2022-07-05T07:56:08;835.33;;;757.15;;
49252;SDS011;35103;47.952;-1.502;2022-07-05T07:58:33;887.03;;;795.88;;
49252;SDS011;35103;47.952;-1.502;2022-07-05T08:00:59;906.20;;;813.30;;
49252;SDS011;35103;47.952;-1.502;2022-07-05T08:03:24;821.38;;;745.15;;
49252;SDS011;35103;47.952;-1.502;2022-07-05T08:05:50;773.13;;;701.20;;
49252;SDS011;35103;47.952;-1.502;2022-07-05T08:08:15;777.30;;;707.40;;
49252;SDS011;35103;47.952;-1.502;2022-07-05T08:10:41;815.22;;;738.30;;
49252;SDS011;35103;47.952;-1.502;2022-07-05T08:13:06;804.13;;;731.55;;
49252;SDS011;35103;47.952;-1.502;2022-07-05T08:15:32;763.38;;;697.08;;
49252;SDS011;35103;47.952;-1.502;2022-07-05T08:17:57;841.65;;;760.30;;
49252;SDS011;35103;47.952;-1.502;2022-07-05T08:20:23;817.25;;;744.15;;
49252;SDS011;35103;47.952;-1.502;2022-07-05T08:22:49;821.58;;;741.17;;
49252;SDS011;35103;47.952;-1.502;2022-07-05T08:25:15;787.58;;;712.22;;
49252;SDS011;35103;47.952;-1.502;2022-07-05T08:27:43;875.10;;;789.72;;
49252;SDS011;35103;47.952;-1.502;2022-07-05T08:30:09;792.75;;;718.47;;
49252;SDS011;35103;47.952;-1.502;2022-07-05T08:32:35;857.08;;;775.28;;
49252;SDS011;35103;47.952;-1.502;2022-07-05T08:35:00;876.40;;;793.53;;
49252;SDS011;35103;47.952;-1.502;2022-07-05T08:37:26;882.05;;;797.22;;
49252;SDS011;35103;47.952;-1.502;2022-07-05T08:39:51;877.70;;;788.10;;
49252;SDS011;35103;47.952;-1.502;2022-07-05T08:42:17;892.67;;;801.08;;
49252;SDS011;35103;47.952;-1.502;2022-07-05T08:44:43;730.15;;;663.95;;
49252;SDS011;35103;47.952;-1.502;2022-07-05T08:47:11;902.17;;;815.08;;
49252;SDS011;35103;47.952;-1.502;2022-07-05T08:49:37;895.03;;;808.50;;
49252;SDS011;35103;47.952;-1.502;2022-07-05T08:52:04;870.05;;;785.65;;
49252;SDS011;35103;47.952;-1.502;2022-07-05T08:54:34;895.40;;;806.97;;
49252;SDS011;35103;47.952;-1.502;2022-07-05T08:57:01;725.75;;;660.65;;
49252;SDS011;35103;47.952;-1.502;2022-07-05T08:59:27;963.22;;;867.72;;
49252;SDS011;35103;47.952;-1.502;2022-07-05T09:01:52;895.72;;;805.35;;
49252;SDS011;35103;47.952;-1.502;2022-07-05T09:04:19;805.20;;;723.50;;
49252;SDS011;35103;47.952;-1.502;2022-07-05T09:06:48;890.17;;;802.65;;
49252;SDS011;35103;47.952;-1.502;2022-07-05T09:09:16;820.03;;;742.22;;
49252;SDS011;35103;47.952;-1.502;2022-07-05T09:11:43;854.28;;;766.80;;
49252;SDS011;35103;47.952;-1.502;2022-07-05T09:14:20;809.30;;;733.97;;
49252;SDS011;35103;47.952;-1.502;2022-07-05T09:16:47;995.20;;;824.60;;
49252;SDS011;35103;47.952;-1.502;2022-07-05T09:19:13;838.47;;;758.85;;
49252;SDS011;35103;47.952;-1.502;2022-07-05T09:21:39;857.72;;;768.00;;
49252;SDS011;35103;47.952;-1.502;2022-07-05T09:24:08;882.90;;;799.17;;
49252;SDS011;35103;47.952;-1.502;2022-07-05T09:26:36;894.05;;;807.85;;
49252;SDS011;35103;47.952;-1.502;2022-07-05T09:29:06;808.70;;;728.65;;
49252;SDS011;35103;47.952;-1.502;2022-07-05T09:31:37;837.70;;;750.10;;
49252;SDS011;35103;47.952;-1.502;2022-07-05T09:34:08;840.15;;;757.85;;
49252;SDS011;35103;47.952;-1.502;2022-07-05T09:39:36;835.40;;;748.42;;
49252;SDS011;35103;47.952;-1.502;2022-07-05T09:44:42;862.17;;;776.45;;
49252;SDS011;35103;47.952;-1.502;2022-07-05T09:47:15;781.92;;;707.03;;
49252;SDS011;35103;47.952;-1.502;2022-07-05T09:49:50;740.20;;;671.57;;
49252;SDS011;35103;47.952;-1.502;2022-07-05T09:52:28;852.53;;;762.10;;
49252;SDS011;35103;47.952;-1.502;2022-07-05T09:55:01;755.45;;;684.28;;
49252;SDS011;35103;47.952;-1.502;2022-07-05T09:57:27;920.55;;;825.03;;
49252;SDS011;35103;47.952;-1.502;2022-07-05T10:02:40;778.95;;;707.70;;
49252;SDS011;35103;47.952;-1.502;2022-07-05T10:05:09;822.85;;;743.63;;
49252;SDS011;35103;47.952;-1.502;2022-07-05T10:07:36;772.03;;;697.45;;
49252;SDS011;35103;47.952;-1.502;2022-07-05T10:10:03;861.42;;;778.78;;
49252;SDS011;35103;47.952;-1.502;2022-07-05T10:12:30;843.03;;;759.70;;
49252;SDS011;35103;47.952;-1.502;2022-07-05T10:14:56;835.38;;;751.30;;
49252;SDS011;35103;47.952;-1.502;2022-07-05T10:17:24;1003.67;;;883.33;;
49252;SDS011;35103;47.952;-1.502;2022-07-05T10:19:51;827.38;;;748.42;;
49252;SDS011;35103;47.952;-1.502;2022-07-05T10:22:19;739.72;;;668.83;;
49252;SDS011;35103;47.952;-1.502;2022-07-05T10:24:44;903.78;;;809.25;;
49252;SDS011;35103;47.952;-1.502;2022-07-05T10:27:11;835.90;;;748.28;;
49252;SDS011;35103;47.952;-1.502;2022-07-05T10:29:38;782.50;;;707.72;;
49252;SDS011;35103;47.952;-1.502;2022-07-05T10:32:06;847.63;;;761.50;;
49252;SDS011;35103;47.952;-1.502;2022-07-05T10:34:33;793.53;;;718.10;;
49252;SDS011;35103;47.952;-1.502;2022-07-05T10:36:58;868.78;;;780.80;;
49252;SDS011;35103;47.952;-1.502;2022-07-05T10:39:24;868.28;;;784.78;;
49252;SDS011;35103;47.952;-1.502;2022-07-05T10:41:50;807.47;;;729.45;;
49252;SDS011;35103;47.952;-1.502;2022-07-05T10:44:29;836.28;;;755.70;;
49252;SDS011;35103;47.952;-1.502;2022-07-05T10:47:07;916.17;;;820.03;;
49252;SDS011;35103;47.952;-1.502;2022-07-05T10:49:34;962.30;;;854.97;;
49252;SDS011;35103;47.952;-1.502;2022-07-05T10:52:00;852.55;;;773.72;;
49252;SDS011;35103;47.952;-1.502;2022-07-05T10:54:26;916.55;;;818.15;;
49252;SDS011;35103;47.952;-1.502;2022-07-05T11:00:04;774.08;;;699.92;;
49252;SDS011;35103;47.952;-1.502;2022-07-05T11:02:31;922.35;;;824.97;;
49252;SDS011;35103;47.952;-1.502;2022-07-05T11:04:56;833.50;;;746.60;;
49252;SDS011;35103;47.952;-1.502;2022-07-05T11:10:26;874.83;;;785.28;;
49252;SDS011;35103;47.952;-1.502;2022-07-05T11:12:51;731.00;;;659.22;;
49252;SDS011;35103;47.952;-1.502;2022-07-05T11:15:17;877.60;;;793.22;;
49252;SDS011;35103;47.952;-1.502;2022-07-05T11:17:43;943.13;;;842.85;;
49252;SDS011;35103;47.952;-1.502;2022-07-05T11:22:36;794.50;;;721.35;;
49252;SDS011;35103;47.952;-1.502;2022-07-05T11:25:22;904.90;;;807.00;;
49252;SDS011;35103;47.952;-1.502;2022-07-05T11:30:47;737.13;;;669.42;;
49252;SDS011;35103;47.952;-1.502;2022-07-05T11:33:34;1002.65;;;895.60;;
49252;SDS011;35103;47.952;-1.502;2022-07-05T11:36:03;807.15;;;728.38;;
49252;SDS011;35103;47.952;-1.502;2022-07-05T11:38:30;935.85;;;839.30;;
49252;SDS011;35103;47.952;-1.502;2022-07-05T11:40:56;962.28;;;868.15;;
49252;SDS011;35103;47.952;-1.502;2022-07-05T11:43:36;865.05;;;780.95;;
49252;SDS011;35103;47.952;-1.502;2022-07-05T11:46:02;906.55;;;801.08;;
49252;SDS011;35103;47.952;-1.502;2022-07-05T11:48:27;693.05;;;626.22;;
49252;SDS011;35103;47.952;-1.502;2022-07-05T11:50:54;853.63;;;767.33;;
49252;SDS011;35103;47.952;-1.502;2022-07-05T11:53:29;813.65;;;735.78;;
49252;SDS011;35103;47.952;-1.502;2022-07-05T11:55:58;874.08;;;783.85;;
49252;SDS011;35103;47.952;-1.502;2022-07-05T11:58:31;1078.00;;;863.83;;
49252;SDS011;35103;47.952;-1.502;2022-07-05T12:00:57;733.95;;;663.50;;
49252;SDS011;35103;47.952;-1.502;2022-07-05T12:03:23;841.70;;;757.72;;
49252;SDS011;35103;47.952;-1.502;2022-07-05T12:05:49;899.88;;;810.17;;
49252;SDS011;35103;47.952;-1.502;2022-07-05T12:08:24;824.83;;;742.88;;
49252;SDS011;35103;47.952;-1.502;2022-07-05T12:10:50;874.13;;;786.72;;
49252;SDS011;35103;47.952;-1.502;2022-07-05T12:13:16;795.67;;;720.50;;
49252;SDS011;35103;47.952;-1.502;2022-07-05T12:15:42;883.30;;;788.53;;
49252;SDS011;35103;47.952;-1.502;2022-07-05T12:18:08;861.30;;;767.50;;
49252;SDS011;35103;47.952;-1.502;2022-07-05T12:20:37;762.03;;;686.30;;
49252;SDS011;35103;47.952;-1.502;2022-07-05T12:23:04;816.20;;;730.20;;
49252;SDS011;35103;47.952;-1.502;2022-07-05T12:25:31;857.85;;;775.22;;
49252;SDS011;35103;47.952;-1.502;2022-07-05T12:27:57;864.80;;;782.88;;
49252;SDS011;35103;47.952;-1.502;2022-07-05T12:30:27;835.13;;;748.20;;
49252;SDS011;35103;47.952;-1.502;2022-07-05T12:32:54;934.03;;;836.70;;
49252;SDS011;35103;47.952;-1.502;2022-07-05T12:35:35;816.90;;;739.58;;
49252;SDS011;35103;47.952;-1.502;2022-07-05T12:40:30;760.50;;;685.08;;
49252;SDS011;35103;47.952;-1.502;2022-07-05T12:45:38;772.95;;;691.25;;
49252;SDS011;35103;47.952;-1.502;2022-07-05T12:48:05;937.17;;;841.25;;
49252;SDS011;35103;47.952;-1.502;2022-07-05T12:50:48;841.45;;;759.47;;
49252;SDS011;35103;47.952;-1.502;2022-07-05T12:53:16;908.55;;;816.72;;
49252;SDS011;35103;47.952;-1.502;2022-07-05T12:55:45;897.08;;;777.83;;
49252;SDS011;35103;47.952;-1.502;2022-07-05T12:58:11;900.22;;;801.45;;
49252;SDS011;35103;47.952;-1.502;2022-07-05T13:00:36;868.22;;;772.40;;
49252;SDS011;35103;47.952;-1.502;2022-07-05T13:03:02;848.78;;;767.38;;
49252;SDS011;35103;47.952;-1.502;2022-07-05T13:05:27;831.47;;;751.80;;
49252;SDS011;35103;47.952;-1.502;2022-07-05T13:07:53;754.65;;;681.08;;
49252;SDS011;35103;47.952;-1.502;2022-07-05T13:10:19;875.17;;;777.78;;
49252;SDS011;35103;47.952;-1.502;2022-07-05T13:12:50;927.63;;;832.30;;
49252;SDS011;35103;47.952;-1.502;2022-07-05T13:15:16;902.15;;;805.25;;
49252;SDS011;35103;47.952;-1.502;2022-07-05T13:17:42;876.72;;;782.00;;
49252;SDS011;35103;47.952;-1.502;2022-07-05T13:20:08;860.13;;;774.90;;
49252;SDS011;35103;47.952;-1.502;2022-07-05T13:22:34;882.72;;;792.28;;
49252;SDS011;35103;47.952;-1.502;2022-07-05T13:25:00;884.97;;;796.58;;
49252;SDS011;35103;47.952;-1.502;2022-07-05T13:27:25;988.55;;;891.25;;
49252;SDS011;35103;47.952;-1.502;2022-07-05T13:29:51;842.00;;;752.97;;
49252;SDS011;35103;47.952;-1.502;2022-07-05T13:32:16;891.35;;;799.35;;
49252;SDS011;35103;47.952;-1.502;2022-07-05T13:34:45;755.40;;;682.45;;
49252;SDS011;35103;47.952;-1.502;2022-07-05T13:37:10;860.67;;;774.50;;
49252;SDS011;35103;47.952;-1.502;2022-07-05T13:39:36;888.30;;;793.08;;
49252;SDS011;35103;47.952;-1.502;2022-07-05T13:42:02;896.20;;;809.38;;
49252;SDS011;35103;47.952;-1.502;2022-07-05T13:44:28;870.72;;;778.10;;
49252;SDS011;35103;47.952;-1.502;2022-07-05T13:46:53;775.15;;;697.88;;
49252;SDS011;35103;47.952;-1.502;2022-07-05T13:49:19;853.42;;;769.45;;
49252;SDS011;35103;47.952;-1.502;2022-07-05T13:51:44;851.40;;;770.83;;
49252;SDS011;35103;47.952;-1.502;2022-07-05T13:54:10;851.30;;;759.90;;
49252;SDS011;35103;47.952;-1.502;2022-07-05T13:56:36;914.30;;;822.08;;
49252;SDS011;35103;47.952;-1.502;2022-07-05T13:59:01;919.22;;;827.88;;
49252;SDS011;35103;47.952;-1.502;2022-07-05T14:01:27;854.97;;;769.15;;
49252;SDS011;35103;47.952;-1.502;2022-07-05T14:03:53;895.53;;;805.33;;
49252;SDS011;35103;47.952;-1.502;2022-07-05T14:06:19;887.30;;;791.33;;
49252;SDS011;35103;47.952;-1.502;2022-07-05T14:08:45;851.03;;;761.67;;
49252;SDS011;35103;47.952;-1.502;2022-07-05T14:11:10;738.75;;;673.00;;